Flight Track Log - Related Links

Times and Time Zones

All times are in EDT time to prevent confusion due to time zone crossing. See the DAL2585 flight status page for this flight to view local times or setup timezone preferences in your user account.

Time Position Orientation Groundspeed Altitude Reporting Facility
EDT Latitude Longitude Course Direction KTS MPH feet Rate Location/Type
Sun 08:08:08 AM 43.1753 -89.3253 328° Northwest 128 147 2,600  Level Minneapolis Center
Sun 08:09:09 AM 43.2208 -89.3722 323° Northwest 194 223 4,800 3,000 Climbing Minneapolis Center
Sun 08:10:10 AM 43.2744 -89.4364 319° Northwest 239 275 8,700 3,620 Climbing Minneapolis Center
Sun 08:11:10 AM 43.3378 -89.5086 320° Northwest 259 298 12,100 2,311 Climbing Minneapolis Center
Sun 08:12:12 AM 43.3992 -89.5831 319° Northwest 320 368 13,400 1,902 Climbing Chicago Center
Sun 08:13:00 AM 43.5137 -89.7189 328° Northwest  Level FlightAware Approximate
Sun 08:13:13 AM 43.4792 -89.6758 320° Northwest 364 419 16,000  Level Chicago Center
Sun 08:14:15 AM 43.5597 -89.7711 319° Northwest 375 432 18,900 2,537 Climbing Chicago Center
Sun 08:15:16 AM 43.6394 -89.8714 318° Northwest 381 438 21,200 1,550 Climbing Chicago Center
Sun 08:16:15 AM 43.7228 -89.9750 318° Northwest 397 457 22,000 403 Climbing Minneapolis Center
Sun 08:17:15 AM 43.8094 -90.0839 318° Northwest 416 479 22,000  Level Minneapolis Center
Sun 08:18:16 AM 43.8958 -90.1919 318° Northwest 419 482 22,000  Level Minneapolis Center
Sun 08:19:17 AM 43.9800 -90.3031 316° Northwest 419 482 22,000  Level Minneapolis Center
Sun 08:20:18 AM 44.0617 -90.4569 306° West 418 481 22,000  Level Minneapolis Center
Sun 08:21:19 AM 44.1300 -90.5789 308° West 412 474 22,000  Level Minneapolis Center
Sun 08:22:20 AM 44.1989 -90.7056 307° West 413 475 22,000  Level Minneapolis Center
Sun 08:23:21 AM 44.2683 -90.8300 308° West 412 474 22,000  Level Minneapolis Center
Sun 08:24:22 AM 44.3322 -90.9475 307° West 412 474 22,000  Level Minneapolis Center
Sun 08:25:23 AM 44.3869 -91.0850 299° West 410 472 22,000  Level Minneapolis Center
Sun 08:26:24 AM 44.4542 -91.2500 300° West 410 472 22,000  Level Minneapolis Center
Sun 08:27:25 AM 44.5103 -91.3861 300° West 410 472 22,000  Level Minneapolis Center
Sun 08:28:26 AM 44.5656 -91.5233 300° West 408 470 22,000 -443 Level Minneapolis Center
Sun 08:29:27 AM 44.6203 -91.6567 300° West 402 463 21,100 -984 Descending Minneapolis Center
Sun 08:30:28 AM 44.6731 -91.7883 299° West 394 453 20,000 -1,869 Descending Minneapolis Center
Sun 08:31:29 AM 44.7233 -91.9172 299° West 384 442 17,300 -2,902 Descending Minneapolis Center
Sun 08:32:30 AM 44.7733 -92.0403 300° West 368 423 14,100 -2,852 Descending Minneapolis Center
Sun 08:33:31 AM 44.8211 -92.1603 299° West 357 411 11,500 -2,066 Descending Minneapolis Center
Sun 08:34:32 AM 44.8647 -92.2725 299° West 333 383 9,900 -738 Descending Minneapolis Center
Sun 08:35:33 AM 44.8500 -92.3936 260° West 337 388 10,000 -246 Climbing Minneapolis Center
Sun 08:36:34 AM 44.8069 -92.4842 236° Southwest 283 326 9,400 -1,033 Descending Minneapolis Center
Sun 08:37:35 AM 44.7661 -92.5886 241° Southwest 259 298 7,900 -1,918 Descending Minneapolis Center
Sun 08:38:36 AM 44.7361 -92.6756 244° Southwest 252 290 5,500 -1,574 Descending Minneapolis Center
Sun 08:39:37 AM 44.7442 -92.7669 277° West 231 266 4,700 -738 Descending Minneapolis Center
Sun 08:40:38 AM 44.7511 -92.8461 277° West 209 241 4,000 -341 Descending Minneapolis Center
Sun 08:41:40 AM 44.7589 -92.9189 279° West 193 222 4,000  Level Minneapolis Center
Sun 08:42:41 AM 44.7786 -92.9828 294° West 186 214 4,000 -344 Level Minneapolis Center
Sun 08:43:42 AM 44.8044 -93.0428 301° West 184 212 3,300 -738 Descending Minneapolis Center
Sun 08:44:43 AM 44.8272 -93.0944 302° West 159 183 2,500 -689 Descending Minneapolis Center
Sun 08:45:44 AM 44.8450 -93.1347 302° West 127 146 1,900 -689 Descending Minneapolis Center
Sun 08:46:45 AM 44.8661 -93.1836 301° West 126 145 1,100 -787 Descending Minneapolis Center

Login

Don't have an account? Register now (free) for customized features, flight alerts, and more!